sensor_id;sensor_type;location;lat;lon;timestamp;pressure;altitude;pressure_sealevel;temperature;humidity
49813;BME280;35706;52.100;5.056;2022-12-07T22:04:44;101302.50;;;3.81;97.72
49813;BME280;35706;52.100;5.056;2022-12-07T22:05:44;101296.09;;;3.87;97.86
49813;BME280;35706;52.100;5.056;2022-12-07T22:06:45;101292.69;;;3.86;97.26
49813;BME280;35706;52.100;5.056;2022-12-07T22:07:45;101291.78;;;3.87;97.38
49813;BME280;35706;52.100;5.056;2022-12-07T22:08:46;101290.16;;;3.85;97.63
49813;BME280;35706;52.100;5.056;2022-12-07T22:09:47;101294.25;;;3.89;97.51
49813;BME280;35706;52.100;5.056;2022-12-07T22:10:47;101283.09;;;3.87;97.46
49813;BME280;35706;52.100;5.056;2022-12-07T22:11:48;101283.09;;;3.87;97.36
49813;BME280;35706;52.100;5.056;2022-12-07T22:12:48;101287.72;;;3.82;97.63
49813;BME280;35706;52.100;5.056;2022-12-07T22:13:48;101293.75;;;3.82;97.49
49813;BME280;35706;52.100;5.056;2022-12-07T22:15:07;101283.53;;;3.79;98.00
49813;BME280;35706;52.100;5.056;2022-12-07T22:16:09;101289.06;;;3.73;98.00
49813;BME280;35706;52.100;5.056;2022-12-07T22:17:09;101284.88;;;3.71;98.16
49813;BME280;35706;52.100;5.056;2022-12-07T22:18:09;101289.81;;;3.75;98.43
49813;BME280;35706;52.100;5.056;2022-12-07T22:19:10;101285.28;;;3.79;98.30
49813;BME280;35706;52.100;5.056;2022-12-07T22:20:10;101283.28;;;3.84;98.14
49813;BME280;35706;52.100;5.056;2022-12-07T22:21:11;101284.88;;;3.86;98.04
49813;BME280;35706;52.100;5.056;2022-12-07T22:22:13;101284.19;;;3.83;98.03
49813;BME280;35706;52.100;5.056;2022-12-07T22:23:14;101285.81;;;3.85;97.99
49813;BME280;35706;52.100;5.056;2022-12-07T22:24:14;101285.88;;;3.84;97.98
49813;BME280;35706;52.100;5.056;2022-12-07T22:25:15;101279.75;;;3.85;98.26
49813;BME280;35706;52.100;5.056;2022-12-07T22:26:16;101286.22;;;3.78;98.29
49813;BME280;35706;52.100;5.056;2022-12-07T22:27:17;101285.63;;;3.88;98.11
49813;BME280;35706;52.100;5.056;2022-12-07T22:28:18;101290.41;;;3.80;98.06
49813;BME280;35706;52.100;5.056;2022-12-07T22:29:18;101288.31;;;3.87;98.20
49813;BME280;35706;52.100;5.056;2022-12-07T22:30:19;101290.84;;;3.88;97.57
49813;BME280;35706;52.100;5.056;2022-12-07T22:31:20;101290.91;;;3.87;98.08
49813;BME280;35706;52.100;5.056;2022-12-07T22:32:21;101286.56;;;3.87;98.15
49813;BME280;35706;52.100;5.056;2022-12-07T22:33:21;101284.94;;;3.85;97.93
49813;BME280;35706;52.100;5.056;2022-12-07T22:34:21;101277.31;;;3.82;98.16
49813;BME280;35706;52.100;5.056;2022-12-07T22:35:22;101271.19;;;3.83;98.31
49813;BME280;35706;52.100;5.056;2022-12-07T22:36:22;101275.31;;;3.87;98.06
49813;BME280;35706;52.100;5.056;2022-12-07T22:37:22;101276.25;;;3.86;98.24
49813;BME280;35706;52.100;5.056;2022-12-07T22:38:23;101275.63;;;3.81;98.08
49813;BME280;35706;52.100;5.056;2022-12-07T22:39:23;101278.22;;;3.81;98.14
49813;BME280;35706;52.100;5.056;2022-12-07T22:40:23;101273.47;;;3.89;97.95
49813;BME280;35706;52.100;5.056;2022-12-07T22:41:25;101272.81;;;3.85;97.99
49813;BME280;35706;52.100;5.056;2022-12-07T22:42:25;101267.28;;;3.92;97.84
49813;BME280;35706;52.100;5.056;2022-12-07T22:43:26;101272.72;;;4.03;97.56
49813;BME280;35706;52.100;5.056;2022-12-07T22:44:26;101268.53;;;4.00;97.51
49813;BME280;35706;52.100;5.056;2022-12-07T22:45:26;101268.53;;;4.00;97.29
49813;BME280;35706;52.100;5.056;2022-12-07T22:46:27;101269.13;;;4.05;97.40
49813;BME280;35706;52.100;5.056;2022-12-07T22:47:27;101266.50;;;4.05;97.17
49813;BME280;35706;52.100;5.056;2022-12-07T22:48:27;101259.53;;;4.06;97.23
49813;BME280;35706;52.100;5.056;2022-12-07T22:49:28;101259.97;;;3.98;97.58
49813;BME280;35706;52.100;5.056;2022-12-07T22:50:28;101258.28;;;3.97;98.16
49813;BME280;35706;52.100;5.056;2022-12-07T22:51:34;101249.56;;;3.98;97.88
49813;BME280;35706;52.100;5.056;2022-12-07T22:52:35;101257.13;;;4.03;97.35
49813;BME280;35706;52.100;5.056;2022-12-07T22:53:35;101258.22;;;3.99;97.65
49813;BME280;35706;52.100;5.056;2022-12-07T22:54:35;101253.75;;;4.01;97.84
49813;BME280;35706;52.100;5.056;2022-12-07T22:55:39;101250.41;;;3.99;97.62
49813;BME280;35706;52.100;5.056;2022-12-07T22:56:39;101251.31;;;3.98;97.89
49813;BME280;35706;52.100;5.056;2022-12-07T22:57:39;101251.50;;;3.95;98.13
49813;BME280;35706;52.100;5.056;2022-12-07T22:58:40;101253.59;;;4.04;98.01
49813;BME280;35706;52.100;5.056;2022-12-07T22:59:40;101243.19;;;4.04;97.67
49813;BME280;35706;52.100;5.056;2022-12-07T23:00:41;101245.78;;;4.04;97.90
49813;BME280;35706;52.100;5.056;2022-12-07T23:01:44;101247.47;;;4.05;97.87
49813;BME280;35706;52.100;5.056;2022-12-07T23:02:44;101245.72;;;4.05;97.95
49813;BME280;35706;52.100;5.056;2022-12-07T23:03:45;101246.97;;;3.98;97.89
49813;BME280;35706;52.100;5.056;2022-12-07T23:04:46;101247.06;;;3.97;98.21
49813;BME280;35706;52.100;5.056;2022-12-07T23:05:47;101245.72;;;4.05;98.05
49813;BME280;35706;52.100;5.056;2022-12-07T23:06:48;101244.19;;;4.01;97.80
49813;BME280;35706;52.100;5.056;2022-12-07T23:07:48;101241.44;;;4.04;97.72
49813;BME280;35706;52.100;5.056;2022-12-07T23:08:49;101238.72;;;4.06;97.52
49813;BME280;35706;52.100;5.056;2022-12-07T23:09:49;101248.22;;;4.07;97.63
49813;BME280;35706;52.100;5.056;2022-12-07T23:10:50;101237.91;;;4.05;97.85
49813;BME280;35706;52.100;5.056;2022-12-07T23:11:50;101232.88;;;4.02;97.79
49813;BME280;35706;52.100;5.056;2022-12-07T23:13:13;101231.63;;;3.94;97.87
49813;BME280;35706;52.100;5.056;2022-12-07T23:14:35;101232.69;;;4.05;98.08
49813;BME280;35706;52.100;5.056;2022-12-07T23:15:36;101237.22;;;4.02;97.71
49813;BME280;35706;52.100;5.056;2022-12-07T23:16:37;101232.13;;;4.00;97.77
49813;BME280;35706;52.100;5.056;2022-12-07T23:17:37;101231.88;;;4.05;97.89
49813;BME280;35706;52.100;5.056;2022-12-07T23:18:38;101226.31;;;3.95;97.96
49813;BME280;35706;52.100;5.056;2022-12-07T23:19:39;101221.22;;;3.94;98.42
49813;BME280;35706;52.100;5.056;2022-12-07T23:20:39;101221.78;;;3.99;98.08
49813;BME280;35706;52.100;5.056;2022-12-07T23:21:40;101224.47;;;3.97;97.88
49813;BME280;35706;52.100;5.056;2022-12-07T23:22:40;101218.78;;;4.06;97.83
49813;BME280;35706;52.100;5.056;2022-12-07T23:23:40;101214.50;;;4.05;97.66
49813;BME280;35706;52.100;5.056;2022-12-07T23:24:41;101212.91;;;4.03;97.75
49813;BME280;35706;52.100;5.056;2022-12-07T23:25:41;101214.91;;;3.98;98.17
49813;BME280;35706;52.100;5.056;2022-12-07T23:26:43;101209.13;;;3.93;98.12
49813;BME280;35706;52.100;5.056;2022-12-07T23:27:43;101209.53;;;4.01;97.81
49813;BME280;35706;52.100;5.056;2022-12-07T23:28:43;101211.03;;;3.89;98.33
49813;BME280;35706;52.100;5.056;2022-12-07T23:29:44;101210.22;;;3.88;98.38
49813;BME280;35706;52.100;5.056;2022-12-07T23:30:44;101204.94;;;3.90;98.42
49813;BME280;35706;52.100;5.056;2022-12-07T23:31:46;101207.09;;;3.98;98.26
49813;BME280;35706;52.100;5.056;2022-12-07T23:32:46;101213.25;;;3.97;98.03
49813;BME280;35706;52.100;5.056;2022-12-07T23:33:46;101212.06;;;3.86;98.24
49813;BME280;35706;52.100;5.056;2022-12-07T23:34:47;101210.22;;;3.88;98.16
49813;BME280;35706;52.100;5.056;2022-12-07T23:35:47;101217.25;;;3.86;98.50
49813;BME280;35706;52.100;5.056;2022-12-07T23:36:47;101218.34;;;3.82;98.49
49813;BME280;35706;52.100;5.056;2022-12-07T23:37:48;101215.06;;;3.79;99.04
49813;BME280;35706;52.100;5.056;2022-12-07T23:38:50;101208.19;;;3.78;99.14
49813;BME280;35706;52.100;5.056;2022-12-07T23:39:51;101211.38;;;3.83;99.13
49813;BME280;35706;52.100;5.056;2022-12-07T23:40:51;101207.69;;;3.87;98.99
49813;BME280;35706;52.100;5.056;2022-12-07T23:41:51;101203.25;;;3.89;98.84
49813;BME280;35706;52.100;5.056;2022-12-07T23:42:51;101210.22;;;3.88;98.83
49813;BME280;35706;52.100;5.056;2022-12-07T23:43:56;101208.03;;;3.81;99.16
49813;BME280;35706;52.100;5.056;2022-12-07T23:44:57;101202.81;;;3.81;99.13
49813;BME280;35706;52.100;5.056;2022-12-07T23:45:57;101196.47;;;3.86;99.15
49813;BME280;35706;52.100;5.056;2022-12-07T23:46:57;101201.50;;;3.90;98.86
49813;BME280;35706;52.100;5.056;2022-12-07T23:47:58;101209.63;;;3.83;99.00
49813;BME280;35706;52.100;5.056;2022-12-07T23:48:59;101195.88;;;3.81;99.13
49813;BME280;35706;52.100;5.056;2022-12-07T23:50:00;101198.97;;;3.88;98.98
49813;BME280;35706;52.100;5.056;2022-12-07T23:51:03;101207.88;;;3.84;98.95
49813;BME280;35706;52.100;5.056;2022-12-07T23:52:04;101197.03;;;3.76;99.52
49813;BME280;35706;52.100;5.056;2022-12-07T23:53:04;101206.63;;;3.75;99.56
49813;BME280;35706;52.100;5.056;2022-12-07T23:54:04;101199.56;;;3.77;99.42
49813;BME280;35706;52.100;5.056;2022-12-07T23:55:05;101203.84;;;3.78;99.46
49813;BME280;35706;52.100;5.056;2022-12-07T23:56:09;101199.72;;;3.74;99.80
49813;BME280;35706;52.100;5.056;2022-12-07T23:57:10;101206.53;;;3.77;99.57
49813;BME280;35706;52.100;5.056;2022-12-07T23:58:10;101196.19;;;3.91;99.18
49813;BME280;35706;52.100;5.056;2022-12-07T23:59:11;101189.50;;;3.87;99.10
